Time;durP1;ratioP1;P1;durP2;ratioP2;P2;SDS_P1;SDS_P2;PMS_P1;PMS_P2;Temp;Humidity;BMP_temperature;BMP_pressure;BME280_temperature;BME280_humidity;BME280_pressure;Samples;Min_cycle;Max_cycle;Signal;HPM_P1;HPM_P2
2021/09/23 00:04:40;;;;;;;0.82;0.68;;;23.80;44.10;27.90;94572.00;;;;10269381;28;45330;-62
2021/09/23 00:09:40;;;;;;;1.60;0.70;;;23.80;44.00;27.90;94574.00;;;;10252553;28;51942;-62
2021/09/23 00:14:41;;;;;;;0.75;0.70;;;23.70;43.90;27.90;94561.00;;;;10268617;28;75124;-62
2021/09/23 00:19:41;;;;;;;1.35;0.77;;;23.70;43.90;27.90;94558.00;;;;10267854;28;75128;-62
2021/09/23 00:24:42;;;;;;;0.85;0.80;;;23.70;43.80;27.90;94546.00;;;;10268705;28;75580;-62
2021/09/23 00:29:43;;;;;;;0.70;0.70;;;23.70;43.80;27.90;94540.00;;;;10267722;28;75496;-65
2021/09/23 00:34:44;;;;;;;0.90;0.70;;;23.70;43.80;27.90;94533.00;;;;10268272;28;73942;-62
2021/09/23 00:39:45;;;;;;;1.42;0.65;;;23.70;43.80;27.90;94540.00;;;;10268677;28;45435;-62
2021/09/23 00:45:00;;;;;;;1.17;0.80;;;23.70;43.70;27.90;94529.00;;;;10270236;28;45531;-62
2021/09/23 00:50:01;;;;;;;0.82;0.70;;;23.70;43.80;27.90;94532.00;;;;10268237;28;45662;-62
2021/09/23 00:55:04;;;;;;;0.70;0.60;;;23.70;43.70;27.90;94530.00;;;;10268396;28;57678;-63
2021/09/23 01:00:09;;;;;;;1.00;0.80;;;23.70;43.60;27.90;94526.00;;;;10265329;28;50185;-63
2021/09/23 01:05:10;;;;;;;0.90;0.70;;;23.70;43.70;27.80;94514.00;;;;10248434;28;47884;-63
2021/09/23 01:10:13;;;;;;;0.60;0.47;;;23.70;43.60;27.80;94495.00;;;;10267645;28;46547;-63
2021/09/23 01:15:17;;;;;;;1.10;0.80;;;23.70;43.60;27.80;94485.00;;;;10268253;28;45549;-63
2021/09/23 01:20:19;;;;;;;0.60;0.60;;;23.70;43.60;27.80;94482.00;;;;10268283;28;45374;-63
2021/09/23 01:25:22;;;;;;;0.90;0.80;;;23.70;43.60;27.80;94476.00;;;;10275268;28;45337;-63
2021/09/23 01:30:25;;;;;;;0.65;0.65;;;23.70;43.60;27.80;94471.00;;;;10274180;28;45290;-63
2021/09/23 01:35:26;;;;;;;0.90;0.50;;;23.70;43.50;27.80;94462.00;;;;10257784;28;47895;-63
2021/09/23 01:40:27;;;;;;;0.60;0.60;;;23.70;43.50;27.80;94466.00;;;;10272752;28;75123;-63
2021/09/23 01:45:27;;;;;;;0.80;0.75;;;23.60;43.50;27.80;94456.00;;;;10272396;28;75566;-63
2021/09/23 01:50:28;;;;;;;0.60;0.60;;;23.70;43.50;27.80;94456.00;;;;10272776;28;74589;-63
2021/09/23 01:55:29;;;;;;;0.93;0.70;;;23.60;43.50;27.80;94468.00;;;;10255966;28;74488;-64
2021/09/23 02:00:30;;;;;;;1.02;0.77;;;23.70;43.50;27.80;94456.00;;;;10272849;28;45337;-63
2021/09/23 02:05:31;;;;;;;0.80;0.80;;;23.60;43.40;27.80;94464.00;;;;10257096;28;47240;-63
2021/09/23 02:10:32;;;;;;;0.82;0.77;;;23.70;43.40;27.80;94477.00;;;;10273927;28;45365;-63
2021/09/23 02:15:32;;;;;;;0.70;0.70;;;23.60;43.30;27.80;94458.00;;;;10272235;28;69182;-64
2021/09/23 02:20:33;;;;;;;0.90;0.63;;;23.60;43.30;27.80;94471.00;;;;10272714;28;75706;-63
2021/09/23 02:25:34;;;;;;;1.25;0.70;;;23.60;43.30;27.80;94476.00;;;;10272674;28;75219;-63
2021/09/23 02:30:35;;;;;;;0.75;0.70;;;23.60;43.30;27.70;94473.00;;;;10254150;28;74968;-63
2021/09/23 02:35:36;;;;;;;0.90;0.70;;;23.60;43.30;27.70;94458.00;;;;10272218;28;45404;-63
2021/09/23 02:40:36;;;;;;;0.70;0.68;;;23.60;43.30;27.70;94465.00;;;;10271492;28;51331;-63
2021/09/23 02:45:37;;;;;;;0.50;0.50;;;23.60;43.30;27.70;94451.00;;;;10271970;28;48161;-63
2021/09/23 02:50:38;;;;;;;0.90;0.80;;;23.50;43.20;27.70;94451.00;;;;10271920;28;75327;-63
2021/09/23 02:55:38;;;;;;;0.60;0.60;;;23.60;43.30;27.80;94461.00;;;;10270188;28;74672;-63
2021/09/23 03:00:39;;;;;;;0.88;0.60;;;23.60;43.40;27.80;94467.00;;;;10270569;28;56778;-63
2021/09/23 03:05:43;;;;;;;0.65;0.50;;;23.60;43.40;27.80;94452.00;;;;10271422;28;46244;-63
2021/09/23 03:10:44;;;;;;;0.85;0.65;;;23.60;43.30;27.70;94467.00;;;;10254566;28;47269;-63
2021/09/23 03:15:44;;;;;;;1.17;0.70;;;23.60;43.30;27.80;94464.00;;;;10271472;28;74302;-63
2021/09/23 03:20:46;;;;;;;0.90;0.80;;;23.50;43.20;27.80;94469.00;;;;10254501;28;47441;-63
2021/09/23 03:25:50;;;;;;;0.60;0.60;;;23.60;43.40;27.80;94460.00;;;;10254315;28;48095;-63
2021/09/23 03:30:50;;;;;;;0.60;0.60;;;23.60;43.50;27.80;94460.00;;;;10270146;28;45354;-63
2021/09/23 03:35:51;;;;;;;1.08;0.63;;;23.60;43.30;27.80;94462.00;;;;10269160;28;75492;-63
2021/09/23 03:40:52;;;;;;;0.85;0.60;;;23.60;43.30;27.80;94448.00;;;;10270929;28;45298;-63
2021/09/23 03:45:56;;;;;;;0.80;0.60;;;23.50;43.40;27.80;94446.00;;;;10252334;28;74160;-64
2021/09/23 03:50:58;;;;;;;0.77;0.60;;;23.60;43.40;27.80;94447.00;;;;10270174;28;45451;-63
2021/09/23 03:55:59;;;;;;;0.60;0.57;;;23.60;43.30;27.80;94467.00;;;;10269511;28;45349;-63
2021/09/23 04:00:59;;;;;;;1.00;0.70;;;23.60;43.20;27.80;94468.00;;;;10253133;28;73410;-63
2021/09/23 04:06:00;;;;;;;0.65;0.63;;;23.60;43.20;27.80;94482.00;;;;10253122;28;73099;-64
2021/09/23 04:11:01;;;;;;;0.77;0.60;;;23.60;43.10;27.80;94463.00;;;;10270588;28;73911;-63
2021/09/23 04:16:01;;;;;;;1.30;0.57;;;23.60;43.20;27.80;94479.00;;;;10269500;28;64570;-63
2021/09/23 04:21:02;;;;;;;0.60;0.50;;;23.60;43.00;27.80;94463.00;;;;10270134;28;45336;-64
2021/09/23 04:26:03;;;;;;;0.50;0.50;;;23.60;43.00;27.80;94461.00;;;;10253575;28;47165;-65
2021/09/23 04:31:04;;;;;;;0.90;0.50;;;23.60;43.00;27.80;94463.00;;;;10269725;28;74672;-63
2021/09/23 04:36:05;;;;;;;0.80;0.70;;;23.60;43.00;27.80;94453.00;;;;10266606;28;74831;-63
2021/09/23 04:41:05;;;;;;;0.75;0.52;;;23.60;43.00;27.80;94447.00;;;;10268713;28;45704;-63
2021/09/23 04:46:07;;;;;;;0.65;0.50;;;23.60;42.90;27.80;94435.00;;;;10250275;28;75133;-64
2021/09/23 04:51:07;;;;;;;1.20;0.70;;;23.60;42.90;27.80;94446.00;;;;10268379;28;45407;-63
2021/09/23 04:56:08;;;;;;;0.57;0.50;;;23.60;42.80;27.80;94443.00;;;;10269302;28;74362;-63
2021/09/23 05:01:09;;;;;;;0.57;0.50;;;23.60;42.80;27.80;94435.00;;;;10274910;28;74295;-63
2021/09/23 05:06:09;;;;;;;0.68;0.50;;;23.60;42.80;27.80;94444.00;;;;10273912;28;53994;-64
2021/09/23 05:11:10;;;;;;;1.00;0.68;;;23.60;42.90;27.80;94438.00;;;;10274618;28;46988;-63
2021/09/23 05:16:11;;;;;;;1.85;0.82;;;23.60;43.00;27.80;94435.00;;;;10274543;28;75735;-63
2021/09/23 05:21:12;;;;;;;0.65;0.55;;;23.60;43.00;27.80;94439.00;;;;10274638;28;45315;-64
2021/09/23 05:26:13;;;;;;;0.88;0.70;;;23.60;43.00;27.80;94438.00;;;;10274119;28;49398;-63
2021/09/23 05:31:14;;;;;;;0.55;0.47;;;23.50;42.90;27.80;94437.00;;;;10273180;28;75683;-63
2021/09/23 05:36:14;;;;;;;0.73;0.60;;;23.60;43.00;27.70;94415.00;;;;10273632;28;75218;-64
2021/09/23 05:41:15;;;;;;;0.73;0.50;;;23.60;42.90;27.70;94425.00;;;;10273827;28;45571;-63
2021/09/23 05:46:16;;;;;;;0.95;0.70;;;23.60;42.80;27.70;94442.00;;;;10273541;28;74351;-63
2021/09/23 05:51:16;;;;;;;0.63;0.60;;;23.60;42.80;27.80;94428.00;;;;10272787;28;75359;-63
2021/09/23 05:56:17;;;;;;;0.60;0.50;;;23.60;42.90;27.70;94407.00;;;;10273920;28;66973;-64
2021/09/23 06:01:18;;;;;;;0.45;0.43;;;23.60;42.90;27.80;94419.00;;;;10272625;28;75462;-63
2021/09/23 06:06:18;;;;;;;0.50;0.45;;;23.50;43.00;27.80;94424.00;;;;10271505;28;59230;-63
2021/09/23 06:11:19;;;;;;;0.98;0.70;;;23.50;42.60;27.80;94414.00;;;;10256140;28;47481;-64
2021/09/23 06:16:20;;;;;;;0.50;0.40;;;23.50;42.60;27.80;94401.00;;;;10271566;28;72829;-64
2021/09/23 06:21:20;;;;;;;1.05;0.60;;;23.60;42.60;27.80;94395.00;;;;10235281;28;75361;-62
2021/09/23 06:26:22;;;;;;;1.23;0.80;;;23.60;42.70;27.80;94394.00;;;;10246501;28;74060;-62
2021/09/23 06:31:23;;;;;;;1.50;0.70;;;23.60;42.70;27.80;94401.00;;;;10252169;28;45591;-62
2021/09/23 06:36:24;;;;;;;0.82;0.70;;;23.60;42.70;27.80;94407.00;;;;10247533;28;71779;-64
2021/09/23 06:41:25;;;;;;;0.82;0.80;;;23.60;42.70;27.80;94397.00;;;;10241185;28;74229;-62
2021/09/23 06:46:27;;;;;;;1.55;0.70;;;23.60;42.80;27.80;94395.00;;;;10271007;28;60599;-62
2021/09/23 06:51:28;;;;;;;1.77;0.85;;;23.60;42.80;27.80;94407.00;;;;10272340;28;46295;-63
2021/09/23 06:56:29;;;;;;;1.00;0.70;;;23.60;42.90;27.80;94394.00;;;;10272793;28;45516;-63
2021/09/23 07:01:30;;;;;;;0.90;0.70;;;23.60;42.90;27.80;94394.00;;;;10272068;28;45335;-62
2021/09/23 07:06:31;;;;;;;1.13;0.90;;;23.60;42.90;27.80;94381.00;;;;10254052;28;55527;-63
2021/09/23 07:11:31;;;;;;;1.50;0.70;;;23.60;42.90;27.80;94370.00;;;;10272622;28;45568;-62
2021/09/23 07:16:32;;;;;;;1.13;0.80;;;23.60;43.00;27.80;94382.00;;;;10269436;28;75495;-63
2021/09/23 07:21:33;;;;;;;1.20;0.80;;;23.60;42.90;27.70;94384.00;;;;10253135;28;54754;-65
2021/09/23 07:26:34;;;;;;;1.58;0.80;;;23.70;42.70;27.80;94396.00;;;;10270536;28;45338;-65
2021/09/23 07:31:35;;;;;;;0.80;0.70;;;23.60;42.70;27.80;94405.00;;;;10269782;28;45516;-65
2021/09/23 07:36:36;;;;;;;1.00;0.70;;;23.60;42.70;27.70;94408.00;;;;10269924;28;45374;-65
2021/09/23 07:41:40;;;;;;;2.00;0.80;;;23.50;42.80;27.70;94423.00;;;;10271162;28;46733;-65
2021/09/23 07:46:42;;;;;;;1.05;0.80;;;23.50;42.80;27.70;94404.00;;;;10268493;28;47215;-65
2021/09/23 07:51:43;;;;;;;1.00;0.75;;;23.50;42.90;27.70;94407.00;;;;10269826;28;46211;-62
2021/09/23 07:56:44;;;;;;;2.08;0.70;;;23.50;43.30;27.70;94418.00;;;;10221405;28;47104;-65
2021/09/23 08:01:45;;;;;;;1.90;0.65;;;23.60;43.70;27.70;94417.00;;;;10228020;28;45354;-65
2021/09/23 08:06:45;;;;;;;1.05;0.80;;;23.60;43.80;27.80;94404.00;;;;10203374;28;75129;-65
2021/09/23 08:11:47;;;;;;;1.40;0.70;;;23.70;44.10;27.80;94406.00;;;;10226764;28;74614;-66
2021/09/23 08:16:48;;;;;;;2.17;0.88;;;23.70;44.20;27.90;94402.00;;;;10229246;28;47532;-66
2021/09/23 08:21:49;;;;;;;0.68;0.68;;;23.70;44.20;27.90;94398.00;;;;10229123;28;45481;-66
2021/09/23 08:26:49;;;;;;;1.23;0.80;;;23.70;44.20;28.00;94394.00;;;;10211929;28;75973;-64
2021/09/23 08:31:50;;;;;;;0.82;0.82;;;23.80;44.30;28.00;94402.00;;;;10227887;28;54862;-66
2021/09/23 08:36:51;;;;;;;1.20;0.68;;;23.70;44.20;28.00;94415.00;;;;10211614;28;45625;-65
2021/09/23 08:41:51;;;;;;;1.25;0.70;;;23.80;44.30;28.00;94413.00;;;;10227972;28;74384;-65
2021/09/23 08:46:53;;;;;;;0.93;0.60;;;23.80;44.30;28.00;94424.00;;;;10226967;28;75609;-64
2021/09/23 08:51:55;;;;;;;1.00;0.80;;;23.80;44.30;28.00;94440.00;;;;10227604;28;75569;-66
2021/09/23 08:57:01;;;;;;;1.52;0.80;;;23.80;44.20;28.00;94448.00;;;;10211918;28;47747;-62
2021/09/23 09:02:02;;;;;;;1.13;0.80;;;23.80;44.60;28.00;94434.00;;;;10212974;28;47928;-62
2021/09/23 09:07:03;;;;;;;1.13;0.90;;;23.80;43.80;28.00;94440.00;;;;10240810;28;46268;-62
2021/09/23 09:12:13;;;;;;;2.30;0.93;;;23.80;43.60;28.00;94443.00;;;;10229980;28;74444;-63
2021/09/23 09:17:18;;;;;;;1.05;0.77;;;23.70;43.60;28.00;94446.00;;;;10226233;28;45366;-64
2021/09/23 09:22:24;;;;;;;1.33;1.00;;;23.70;43.40;27.90;94449.00;;;;10227535;28;45475;-62
2021/09/23 09:27:32;;;;;;;1.10;0.90;;;23.70;43.40;28.00;94434.00;;;;10220696;28;45633;-64
2021/09/23 09:32:40;;;;;;;2.20;1.00;;;23.70;43.60;27.90;94445.00;;;;10202375;28;45280;-65
2021/09/23 09:37:46;;;;;;;1.35;0.82;;;23.70;43.80;27.90;94438.00;;;;10228932;28;46270;-64
2021/09/23 09:42:51;;;;;;;1.50;1.00;;;23.70;43.50;28.00;94414.00;;;;10214838;28;48170;-64
2021/09/23 09:47:53;;;;;;;1.42;1.00;;;23.80;43.60;27.90;94414.00;;;;10218653;28;47255;-65
2021/09/23 09:53:01;;;;;;;1.23;0.90;;;23.70;43.50;28.00;94440.00;;;;10236040;28;45390;-65
2021/09/23 09:58:04;;;;;;;1.40;0.90;;;23.70;43.60;28.00;94423.00;;;;10242242;28;46532;-65
2021/09/23 10:03:05;;;;;;;1.40;0.90;;;23.70;43.60;27.90;94452.00;;;;10225038;28;47472;-65
2021/09/23 10:08:08;;;;;;;1.52;1.08;;;23.70;43.60;27.90;94443.00;;;;10217026;28;66571;-65
2021/09/23 10:13:09;;;;;;;1.55;1.00;;;23.70;43.60;27.90;94434.00;;;;10217362;28;46962;-65
2021/09/23 10:18:10;;;;;;;1.58;1.00;;;23.70;43.60;27.90;94443.00;;;;10233123;28;46759;-65
2021/09/23 10:23:12;;;;;;;0.70;0.68;;;23.70;43.60;27.90;94422.00;;;;10228259;28;60738;-65
2021/09/23 10:28:13;;;;;;;2.17;1.30;;;23.70;43.60;27.90;94413.00;;;;10194636;28;45482;-65
2021/09/23 10:33:14;;;;;;;1.58;1.15;;;23.70;43.70;27.90;94409.00;;;;10193546;28;45385;-64
2021/09/23 10:38:15;;;;;;;1.90;1.38;;;23.70;43.80;27.90;94420.00;;;;10192816;28;51636;-65
2021/09/23 10:43:18;;;;;;;1.65;1.20;;;23.70;43.80;27.90;94425.00;;;;10193033;28;45422;-65
2021/09/23 10:48:20;;;;;;;2.38;1.50;;;23.70;43.90;27.90;94413.00;;;;10177101;28;47068;-64
2021/09/23 10:53:21;;;;;;;1.85;1.55;;;23.70;44.10;27.90;94411.00;;;;10193017;28;45530;-65
2021/09/23 10:58:22;;;;;;;2.47;1.45;;;23.70;44.20;27.90;94400.00;;;;10175685;28;74733;-65
2021/09/23 11:03:34;;;;;;;3.10;1.55;;;23.70;44.20;28.00;94405.00;;;;10176510;28;46977;-64
2021/09/23 11:08:46;;;;;;;2.33;1.38;;;23.70;44.40;28.00;94394.00;;;;10175692;28;47035;-64
2021/09/23 11:13:49;;;;;;;1.92;1.45;;;23.70;44.40;28.00;94383.00;;;;10197345;28;48228;-64
2021/09/23 11:18:52;;;;;;;1.98;1.60;;;23.80;44.60;28.00;94404.00;;;;10218824;28;74498;-65
2021/09/23 11:23:53;;;;;;;1.77;1.42;;;23.80;44.50;28.00;94410.00;;;;10224474;28;61960;-66
2021/09/23 11:28:54;;;;;;;1.52;1.40;;;23.80;44.50;28.00;94405.00;;;;10239099;28;75055;-65
2021/09/23 11:33:55;;;;;;;1.77;1.27;;;23.70;44.50;28.00;94394.00;;;;10253931;28;61137;-64
2021/09/23 11:38:56;;;;;;;2.53;1.58;;;23.80;44.50;28.10;94402.00;;;;10253354;28;73805;-65
2021/09/23 11:43:56;;;;;;;2.67;1.50;;;23.80;44.50;28.10;94396.00;;;;10271653;28;45385;-65
2021/09/23 11:48:59;;;;;;;1.73;1.40;;;23.80;44.50;28.10;94386.00;;;;10270023;28;74050;-65
2021/09/23 11:54:00;;;;;;;1.75;1.25;;;23.80;44.50;28.10;94385.00;;;;10269591;28;73857;-65
2021/09/23 11:59:02;;;;;;;2.20;1.50;;;23.90;44.50;28.10;94386.00;;;;10269782;28;45285;-64
2021/09/23 12:04:12;;;;;;;2.60;1.50;;;23.80;44.50;28.20;94395.00;;;;10252263;28;74444;-65
2021/09/23 12:09:14;;;;;;;1.70;1.40;;;23.80;44.60;28.20;94385.00;;;;10269638;28;46467;-65
2021/09/23 12:14:15;;;;;;;3.13;1.42;;;23.90;44.60;28.20;94376.00;;;;10254300;28;45612;-65
2021/09/23 12:19:17;;;;;;;2.05;1.40;;;23.90;44.60;28.20;94368.00;;;;10254757;28;75883;-65
2021/09/23 12:24:18;;;;;;;2.35;1.30;;;23.90;44.60;28.20;94345.00;;;;10241668;28;47263;-65
2021/09/23 12:29:23;;;;;;;1.80;1.42;;;23.90;44.70;28.30;94334.00;;;;10213046;28;46766;-65
2021/09/23 12:34:26;;;;;;;1.97;1.30;;;23.90;44.80;28.30;94337.00;;;;10213588;28;47722;-65
2021/09/23 12:39:42;;;;;;;2.00;1.23;;;23.90;44.80;28.30;94342.00;;;;10292188;23;45652;-71
2021/09/23 12:44:54;;;;;;;2.10;1.45;;;23.90;44.90;28.40;94340.00;;;;10269352;28;47249;-70
2021/09/23 12:49:57;;;;;;;1.80;1.30;;;24.00;45.10;28.30;94333.00;;;;10245257;28;47265;-71
2021/09/23 12:55:02;;;;;;;1.80;1.30;;;24.00;45.20;28.30;94327.00;;;;10261691;28;45383;-71
2021/09/23 13:00:10;;;;;;;2.13;1.52;;;24.00;45.10;28.40;94320.00;;;;10245674;28;45342;-71
2021/09/23 13:05:18;;;;;;;1.98;1.50;;;24.00;45.30;28.40;94316.00;;;;10229279;28;47147;-70
2021/09/23 13:10:30;;;;;;;1.70;1.40;;;24.00;45.20;28.40;94322.00;;;;10231429;28;47221;-71
2021/09/23 13:15:44;;;;;;;1.73;1.42;;;24.10;45.20;28.40;94320.00;;;;10244561;28;46357;-72
2021/09/23 13:20:48;;;;;;;1.63;1.48;;;24.10;45.20;28.40;94328.00;;;;10275606;28;45360;-70
2021/09/23 13:25:56;;;;;;;2.60;1.30;;;24.10;45.30;28.40;94317.00;;;;10277860;28;45356;-70
2021/09/23 13:31:01;;;;;;;2.10;1.50;;;24.10;45.30;28.40;94300.00;;;;10277364;28;45326;-71
2021/09/23 13:36:03;;;;;;;1.47;1.17;;;24.10;45.10;28.50;94286.00;;;;10276328;28;45334;-71
2021/09/23 13:41:06;;;;;;;3.05;1.30;;;24.10;45.10;28.50;94276.00;;;;10275956;28;45873;-70
2021/09/23 13:46:07;;;;;;;1.70;1.33;;;24.10;45.00;28.50;94286.00;;;;10275604;28;46333;-70
2021/09/23 13:51:08;;;;;;;1.88;1.42;;;24.10;44.90;28.50;94275.00;;;;10274325;28;75482;-70
2021/09/23 13:56:08;;;;;;;1.60;1.33;;;24.20;45.00;28.50;94283.00;;;;10274414;28;47570;-70
2021/09/23 14:01:09;;;;;;;1.67;1.30;;;24.20;44.90;28.50;94277.00;;;;10257776;28;70681;-71
2021/09/23 14:06:10;;;;;;;2.10;1.40;;;24.20;44.90;28.50;94273.00;;;;10257009;28;77471;-70
2021/09/23 14:11:10;;;;;;;1.52;1.17;;;24.20;44.80;28.50;94280.00;;;;10273129;28;75496;-71
2021/09/23 14:16:12;;;;;;;1.65;1.17;;;24.20;44.70;28.50;94285.00;;;;10273278;28;69911;-71
2021/09/23 14:21:12;;;;;;;1.55;1.30;;;24.20;44.70;28.60;94296.00;;;;10273850;28;53318;-70
2021/09/23 14:26:14;;;;;;;1.30;1.20;;;24.30;44.70;28.60;94277.00;;;;10232548;28;74474;-71
2021/09/23 14:31:15;;;;;;;2.03;1.30;;;24.20;44.60;28.60;94272.00;;;;10235001;28;45521;-70
2021/09/23 14:36:16;;;;;;;1.80;1.38;;;24.30;44.40;28.60;94275.00;;;;10234101;28;75645;-70
2021/09/23 14:41:20;;;;;;;1.80;1.40;;;24.30;44.20;28.60;94270.00;;;;10217262;28;49186;-70
2021/09/23 14:46:20;;;;;;;2.30;1.23;;;24.30;44.10;28.60;94276.00;;;;10215635;28;74345;-70
2021/09/23 14:51:21;;;;;;;1.30;1.00;;;24.30;44.00;28.60;94274.00;;;;10232236;28;73569;-70
2021/09/23 14:56:22;;;;;;;2.10;1.27;;;24.30;44.00;28.60;94255.00;;;;10232786;28;46217;-70
2021/09/23 15:01:23;;;;;;;1.50;1.10;;;24.30;44.00;28.60;94254.00;;;;10216091;28;75184;-70
2021/09/23 15:06:24;;;;;;;1.77;1.10;;;24.30;44.10;28.60;94256.00;;;;10216980;28;47942;-70
2021/09/23 15:11:25;;;;;;;1.35;1.02;;;24.30;44.10;28.70;94248.00;;;;10215013;28;45495;-70
2021/09/23 15:16:26;;;;;;;1.77;1.20;;;24.30;44.00;28.70;94264.00;;;;10262973;28;72640;-71
2021/09/23 15:21:26;;;;;;;1.63;1.20;;;24.30;44.10;28.70;94256.00;;;;10243380;28;45204;-71
2021/09/23 15:26:27;;;;;;;1.25;1.00;;;24.30;44.10;28.70;94254.00;;;;10214328;28;75233;-71
2021/09/23 15:31:28;;;;;;;1.60;1.00;;;24.30;44.20;28.70;94254.00;;;;10214524;28;75980;-70
2021/09/23 15:36:29;;;;;;;2.10;1.40;;;24.40;44.20;28.70;94254.00;;;;10229172;28;75752;-72
2021/09/23 15:41:30;;;;;;;1.27;1.00;;;24.40;44.40;28.70;94270.00;;;;10247919;28;75797;-71
2021/09/23 15:46:30;;;;;;;1.23;0.90;;;24.40;44.30;28.70;94259.00;;;;10246197;28;75318;-70
2021/09/23 15:51:31;;;;;;;1.90;1.33;;;24.40;44.30;28.70;94258.00;;;;10244642;28;75575;-71
2021/09/23 15:56:33;;;;;;;2.60;1.05;;;24.40;44.20;28.70;94261.00;;;;10245245;28;73265;-71
2021/09/23 16:01:33;;;;;;;1.92;1.00;;;24.30;44.20;28.70;94257.00;;;;10248500;28;47248;-71
2021/09/23 16:06:34;;;;;;;2.38;1.00;;;24.40;44.40;28.70;94246.00;;;;10248663;28;74290;-71
2021/09/23 16:11:35;;;;;;;1.73;1.10;;;24.30;44.40;28.70;94258.00;;;;10232717;28;47197;-70
2021/09/23 16:16:36;;;;;;;1.90;1.08;;;24.30;44.50;28.60;94244.00;;;;10233025;28;48161;-70
2021/09/23 16:21:37;;;;;;;1.30;0.95;;;24.30;44.60;28.60;94257.00;;;;10207988;28;45569;-70
2021/09/23 16:26:38;;;;;;;1.70;1.00;;;24.30;44.70;28.60;94242.00;;;;10212374;28;75598;-70
2021/09/23 16:31:39;;;;;;;1.80;1.23;;;24.30;44.80;28.60;94248.00;;;;10229928;28;75365;-70
2021/09/23 16:36:39;;;;;;;2.08;1.25;;;24.30;44.80;28.50;94246.00;;;;10211774;28;75357;-70
2021/09/23 16:41:40;;;;;;;1.60;1.30;;;24.20;44.80;28.50;94249.00;;;;10212214;28;75117;-70
2021/09/23 16:46:41;;;;;;;1.73;1.00;;;24.20;44.80;28.50;94246.00;;;;10211758;28;74883;-66
2021/09/23 16:51:42;;;;;;;1.67;1.08;;;24.20;45.00;28.50;94254.00;;;;10232696;28;75716;-68
2021/09/23 16:56:43;;;;;;;2.42;1.13;;;24.30;45.60;28.50;94244.00;;;;10226244;28;47091;-67
2021/09/23 17:01:44;;;;;;;1.42;0.90;;;24.30;45.60;28.50;94240.00;;;;10242763;28;45478;-70
2021/09/23 17:06:45;;;;;;;2.05;1.05;;;24.30;45.60;28.50;94248.00;;;;10241770;28;56590;-70
2021/09/23 17:11:46;;;;;;;2.00;1.10;;;24.30;45.20;28.50;94239.00;;;;10242400;28;45281;-69
2021/09/23 17:16:47;;;;;;;1.85;1.15;;;24.30;45.50;28.60;94251.00;;;;10226114;28;47860;-64
2021/09/23 17:21:47;;;;;;;2.00;1.08;;;24.30;45.80;28.60;94253.00;;;;10241353;28;47296;-65
2021/09/23 17:26:48;;;;;;;2.70;1.20;;;24.30;45.70;28.60;94258.00;;;;10239811;28;75345;-65
2021/09/23 17:31:49;;;;;;;1.90;0.95;;;24.30;45.60;28.50;94247.00;;;;10241281;28;75678;-65
2021/09/23 17:36:50;;;;;;;2.60;1.20;;;24.20;45.60;28.50;94252.00;;;;10240317;28;50732;-66
2021/09/23 17:41:52;;;;;;;3.17;1.10;;;24.20;45.70;28.50;94259.00;;;;10223844;28;71512;-66
2021/09/23 17:46:52;;;;;;;2.35;1.00;;;24.20;45.70;28.50;94262.00;;;;10224468;28;47709;-66
2021/09/23 17:51:53;;;;;;;2.25;1.05;;;24.20;45.70;28.50;94264.00;;;;10223386;28;75273;-67
2021/09/23 17:56:54;;;;;;;2.92;1.15;;;24.10;45.60;28.50;94263.00;;;;10240333;28;45364;-66
2021/09/23 18:01:54;;;;;;;1.42;1.00;;;24.10;45.70;28.50;94261.00;;;;10238389;28;75237;-66
2021/09/23 18:06:56;;;;;;;1.88;1.20;;;24.10;45.60;28.40;94267.00;;;;10233398;28;75573;-67
2021/09/23 18:12:00;;;;;;;1.85;1.10;;;24.10;45.70;28.40;94263.00;;;;10268581;28;45373;-66
2021/09/23 18:17:02;;;;;;;2.30;1.00;;;24.10;45.70;28.40;94272.00;;;;10248880;28;45503;-67
2021/09/23 18:22:03;;;;;;;1.50;0.95;;;24.00;45.70;28.40;94276.00;;;;10251237;28;47054;-65
2021/09/23 18:27:04;;;;;;;1.50;1.05;;;24.00;45.70;28.40;94276.00;;;;10256758;28;47427;-65
2021/09/23 18:32:05;;;;;;;1.10;0.90;;;24.00;45.70;28.40;94270.00;;;;10273331;28;52032;-65
2021/09/23 18:37:06;;;;;;;1.65;1.00;;;24.00;45.70;28.40;94270.00;;;;10315463;23;45484;-62
2021/09/23 18:42:08;;;;;;;1.40;0.98;;;24.00;45.80;28.40;94291.00;;;;10295822;28;48458;-65
2021/09/23 18:47:08;;;;;;;1.20;0.77;;;24.00;45.90;28.40;94298.00;;;;10298540;28;46999;-63
2021/09/23 18:52:09;;;;;;;1.40;0.90;;;24.00;45.80;28.40;94296.00;;;;10292193;28;73412;-66
2021/09/23 18:57:10;;;;;;;1.58;1.02;;;23.90;45.80;28.30;94300.00;;;;10292642;28;73714;-65
2021/09/23 19:02:11;;;;;;;1.30;1.10;;;23.90;45.80;28.30;94306.00;;;;10286367;28;73102;-64
2021/09/23 19:07:12;;;;;;;2.15;1.08;;;23.90;45.80;28.30;94307.00;;;;10311192;28;74608;-62
2021/09/23 19:12:12;;;;;;;1.08;0.93;;;23.90;45.90;28.30;94313.00;;;;10312130;28;53263;-65
2021/09/23 19:17:13;;;;;;;2.28;0.95;;;23.90;45.90;28.30;94298.00;;;;10309521;28;75437;-64
2021/09/23 19:22:14;;;;;;;1.20;1.08;;;23.90;45.90;28.30;94302.00;;;;10295025;28;64382;-63
2021/09/23 19:27:15;;;;;;;1.38;0.90;;;23.90;45.90;28.20;94300.00;;;;10308640;28;45590;-63
2021/09/23 19:32:17;;;;;;;1.00;0.90;;;23.90;45.90;28.30;94310.00;;;;10269605;28;45512;-63
2021/09/23 19:37:18;;;;;;;2.60;0.93;;;23.90;45.90;28.20;94310.00;;;;10267578;28;47220;-63
2021/09/23 19:42:20;;;;;;;2.40;1.13;;;23.90;45.90;28.20;94309.00;;;;10290406;28;74553;-63
2021/09/23 19:47:20;;;;;;;1.40;1.10;;;23.90;45.90;28.20;94325.00;;;;10281196;28;51717;-62
2021/09/23 19:52:21;;;;;;;1.20;0.80;;;23.90;45.90;28.20;94322.00;;;;10269834;28;75575;-62
2021/09/23 19:57:22;;;;;;;2.05;1.10;;;23.90;46.00;28.20;94310.00;;;;10304490;28;47096;-62
2021/09/23 20:02:23;;;;;;;1.05;0.88;;;23.90;46.00;28.20;94309.00;;;;10311285;28;45438;-62
2021/09/23 20:07:23;;;;;;;1.05;0.95;;;23.90;46.00;28.20;94322.00;;;;10309894;28;45351;-63
2021/09/23 20:12:27;;;;;;;1.38;0.80;;;23.80;46.00;28.20;94305.00;;;;10309628;28;46178;-62
2021/09/23 20:17:28;;;;;;;1.38;1.08;;;23.80;46.00;28.20;94309.00;;;;10310530;28;45312;-62
2021/09/23 20:22:28;;;;;;;1.40;1.05;;;23.80;46.00;28.20;94307.00;;;;10310369;28;75946;-62
2021/09/23 20:27:29;;;;;;;1.30;0.88;;;23.80;46.00;28.20;94301.00;;;;10291608;28;75101;-63
2021/09/23 20:32:30;;;;;;;2.13;1.00;;;23.80;46.00;28.10;94298.00;;;;10308859;28;60487;-63
2021/09/23 20:37:30;;;;;;;1.10;0.95;;;23.80;46.10;28.20;94291.00;;;;10291554;28;73912;-63
2021/09/23 20:42:33;;;;;;;1.05;0.88;;;23.80;46.00;28.10;94294.00;;;;10309491;28;55245;-63
2021/09/23 20:47:33;;;;;;;1.55;1.10;;;23.80;46.00;28.10;94300.00;;;;10310340;28;45336;-62
2021/09/23 20:52:34;;;;;;;1.38;0.80;;;23.80;46.00;28.10;94300.00;;;;10308307;28;68752;-63
2021/09/23 20:57:46;;;;;;;1.08;0.98;;;23.80;46.00;28.10;94301.00;;;;10308986;28;75286;-63
2021/09/23 21:02:47;;;;;;;1.27;1.10;;;23.80;46.00;28.10;94302.00;;;;10309250;28;45340;-63
2021/09/23 21:07:48;;;;;;;1.52;1.02;;;23.80;46.00;28.10;94306.00;;;;10291826;28;47869;-62
2021/09/23 21:12:49;;;;;;;1.83;1.13;;;23.80;46.00;28.10;94306.00;;;;10308631;28;45295;-63
2021/09/23 21:17:50;;;;;;;1.23;1.00;;;23.80;46.10;28.10;94305.00;;;;10308655;28;75110;-63
2021/09/23 21:22:51;;;;;;;2.15;1.00;;;23.80;46.00;28.10;94313.00;;;;10291622;28;47990;-63
2021/09/23 21:27:52;;;;;;;1.17;1.00;;;23.80;46.00;28.00;94317.00;;;;10307060;28;45288;-62
2021/09/23 21:32:52;;;;;;;1.08;0.90;;;23.80;46.10;28.10;94314.00;;;;10290018;28;73500;-63
2021/09/23 21:37:54;;;;;;;1.05;0.80;;;23.80;46.10;28.00;94316.00;;;;10307777;28;45372;-63
2021/09/23 21:42:57;;;;;;;1.20;0.90;;;23.80;46.10;28.00;94305.00;;;;10314158;28;50732;-63
2021/09/23 21:47:57;;;;;;;1.20;1.00;;;23.80;46.10;28.00;94289.00;;;;10296470;28;55564;-63
2021/09/23 21:52:58;;;;;;;1.30;0.90;;;23.80;46.10;28.00;94298.00;;;;10297319;28;47563;-63
2021/09/23 21:57:58;;;;;;;1.00;0.85;;;23.80;46.10;28.00;94303.00;;;;10313652;28;74451;-63
2021/09/23 22:02:59;;;;;;;1.10;0.90;;;23.80;46.10;28.00;94297.00;;;;10296084;28;74463;-63
2021/09/23 22:08:00;;;;;;;1.35;0.90;;;23.80;46.10;28.00;94298.00;;;;10313732;28;75007;-63